createdAt,value
2023-04-10T00:01:36.388Z,13.10
2023-04-10T00:04:22.331Z,13.00
2023-04-10T00:07:14.340Z,13.00
2023-04-10T00:10:00.175Z,13.10
2023-04-10T00:12:46.494Z,13.00
2023-04-10T00:15:40.779Z,12.90
2023-04-10T00:18:26.542Z,13.00
2023-04-10T00:21:12.780Z,12.70
2023-04-10T00:23:59.932Z,12.70
2023-04-10T00:26:49.577Z,12.70
2023-04-10T00:29:36.173Z,12.50
2023-04-10T00:32:22.588Z,12.30
2023-04-10T00:35:09.382Z,12.50
2023-04-10T00:37:59.126Z,12.60
2023-04-10T00:40:46.360Z,12.70
2023-04-10T00:43:32.486Z,12.50
2023-04-10T00:46:20.542Z,12.60
2023-04-10T00:49:06.940Z,12.70
2023-04-10T00:51:53.477Z,12.80
2023-04-10T00:54:39.805Z,12.60
2023-04-10T00:57:27.533Z,12.60
2023-04-10T01:00:14.574Z,12.40
2023-04-10T01:03:01.660Z,12.60
2023-04-10T01:05:53.055Z,12.20
2023-04-10T01:08:47.270Z,12.20
2023-04-10T01:11:45.381Z,12.50
2023-04-10T01:14:41.333Z,12.40
2023-04-10T01:17:32.025Z,12.50
2023-04-10T01:20:22.369Z,12.50
2023-04-10T01:23:51.875Z,12.50
2023-04-10T01:26:43.357Z,12.40
2023-04-10T01:29:32.652Z,12.30
2023-04-10T01:32:23.037Z,12.20
2023-04-10T01:35:15.575Z,12.20
2023-04-10T01:38:04.927Z,12.30
2023-04-10T01:40:53.434Z,12.30
2023-04-10T01:43:49.653Z,12.30
2023-04-10T01:46:39.173Z,12.40
2023-04-10T01:49:28.366Z,12.40
2023-04-10T01:52:25.769Z,12.40
2023-04-10T01:55:23.596Z,12.40
2023-04-10T01:58:14.454Z,12.50
2023-04-10T02:01:01.830Z,12.30
2023-04-10T02:03:49.258Z,12.40
2023-04-10T02:06:44.896Z,12.40
2023-04-10T02:09:40.728Z,12.30
2023-04-10T02:12:30.469Z,12.30
2023-04-10T02:15:22.682Z,12.60
2023-04-10T02:18:11.491Z,12.70
2023-04-10T02:20:59.198Z,12.70
2023-04-10T02:23:45.757Z,12.60
2023-04-10T02:26:43.809Z,12.60
2023-04-10T02:29:29.670Z,12.60
2023-04-10T02:32:17.400Z,12.70
2023-04-10T02:35:05.534Z,12.60
2023-04-10T02:37:52.707Z,12.40
2023-04-10T02:40:38.692Z,12.40
2023-04-10T02:43:32.500Z,12.50
2023-04-10T02:46:19.317Z,12.70
2023-04-10T02:49:06.418Z,12.80
2023-04-10T02:51:52.502Z,12.50
2023-04-10T02:54:40.496Z,12.30
2023-04-10T02:57:27.381Z,12.50
2023-04-10T03:00:14.325Z,12.60
2023-04-10T03:03:31.171Z,12.40
2023-04-10T03:06:17.584Z,12.50
2023-04-10T03:09:05.882Z,12.40
2023-04-10T03:11:54.027Z,12.10
2023-04-10T03:14:40.739Z,12.20
2023-04-10T03:17:28.613Z,12.10
2023-04-10T03:20:15.882Z,12.00
2023-04-10T03:23:03.080Z,12.10
2023-04-10T03:25:51.284Z,12.20
2023-04-10T03:28:39.693Z,12.10
2023-04-10T03:31:27.942Z,12.20
2023-04-10T03:34:17.072Z,12.20
2023-04-10T03:37:03.793Z,12.00
2023-04-10T03:39:49.532Z,11.90
2023-04-10T03:42:35.882Z,12.00
2023-04-10T03:45:24.022Z,11.90
2023-04-10T03:48:09.850Z,11.70
2023-04-10T03:51:02.543Z,11.70
2023-04-10T03:53:48.125Z,11.80
2023-04-10T03:56:35.473Z,11.50
2023-04-10T03:59:24.359Z,11.40
2023-04-10T04:02:18.850Z,11.50
2023-04-10T04:05:05.960Z,11.40
2023-04-10T04:08:04.777Z,11.40
2023-04-10T04:11:15.869Z,11.60
2023-04-10T04:14:36.907Z,11.60
2023-04-10T04:17:46.345Z,11.20
2023-04-10T04:20:50.837Z,11.30
2023-04-10T04:24:12.090Z,11.00
2023-04-10T04:27:13.451Z,10.70
2023-04-10T04:30:08.842Z,10.30
2023-04-10T04:33:25.439Z,10.60
2023-04-10T04:36:37.840Z,10.90
2023-04-10T04:39:46.917Z,10.80
2023-04-10T04:42:41.620Z,11.10
2023-04-10T04:45:47.905Z,11.00
2023-04-10T04:48:58.574Z,10.80
2023-04-10T04:51:59.972Z,10.60
2023-04-10T04:54:56.221Z,10.70
2023-04-10T04:57:53.403Z,11.00
2023-04-10T05:00:47.022Z,11.10
2023-04-10T05:03:45.294Z,10.80
2023-04-10T05:06:43.557Z,10.60
2023-04-10T05:09:48.123Z,10.70
2023-04-10T05:13:00.849Z,10.60
2023-04-10T05:16:06.021Z,10.80
2023-04-10T05:19:17.321Z,11.00
2023-04-10T05:22:31.081Z,11.10
2023-04-10T05:25:32.828Z,10.50
2023-04-10T05:28:36.597Z,10.70
2023-04-10T05:31:41.419Z,11.00
2023-04-10T05:34:34.718Z,10.90
2023-04-10T05:38:00.880Z,10.90
2023-04-10T05:41:00.896Z,11.10
2023-04-10T05:44:09.920Z,11.30
2023-04-10T05:47:14.813Z,11.50
2023-04-10T05:50:30.399Z,11.80
2023-04-10T05:53:37.140Z,12.00
2023-04-10T05:56:42.174Z,12.40
2023-04-10T06:00:00.369Z,12.70
2023-04-10T06:03:12.540Z,13.00
2023-04-10T06:06:08.848Z,13.10
2023-04-10T06:08:56.361Z,13.20
2023-04-10T06:11:42.504Z,13.40
2023-04-10T06:14:28.074Z,13.40
2023-04-10T06:17:15.325Z,13.80
2023-04-10T06:20:05.080Z,13.60
2023-04-10T06:22:51.582Z,13.50
2023-04-10T06:25:39.553Z,13.90
2023-04-10T06:28:25.230Z,14.10
2023-04-10T06:31:15.110Z,14.20
2023-04-10T06:34:00.977Z,14.30
2023-04-10T06:36:47.568Z,14.30
2023-04-10T06:39:33.331Z,14.50
2023-04-10T06:42:20.409Z,14.80
2023-04-10T06:45:17.023Z,14.90
2023-04-10T06:48:02.936Z,14.70
2023-04-10T06:50:48.862Z,14.40
2023-04-10T06:53:34.571Z,14.60
2023-04-10T06:56:21.015Z,14.80
2023-04-10T06:59:08.115Z,14.80
2023-04-10T07:01:53.782Z,15.10
2023-04-10T07:04:39.780Z,14.70
2023-04-10T07:07:25.546Z,14.80
2023-04-10T07:10:11.691Z,14.60
2023-04-10T07:12:59.026Z,15.20
2023-04-10T07:15:46.628Z,15.30
2023-04-10T07:18:32.927Z,14.80
2023-04-10T07:21:21.923Z,15.00
2023-04-10T07:24:08.237Z,15.00
2023-04-10T07:26:54.015Z,15.00
2023-04-10T07:29:39.602Z,14.60
2023-04-10T07:32:27.160Z,14.90
2023-04-10T07:35:13.423Z,15.10
2023-04-10T07:37:59.519Z,14.90
2023-04-10T07:40:45.225Z,15.50
2023-04-10T07:43:31.108Z,15.70
2023-04-10T07:46:17.358Z,15.70
2023-04-10T07:49:07.391Z,16.10
2023-04-10T07:51:54.490Z,16.10
2023-04-10T07:54:40.263Z,16.00
2023-04-10T07:57:26.074Z,15.90
2023-04-10T08:00:13.012Z,16.10
2023-04-10T08:02:59.029Z,16.60
2023-04-10T08:05:46.581Z,16.80
2023-04-10T08:08:32.360Z,17.30
2023-04-10T08:11:26.584Z,17.30
2023-04-10T08:14:13.583Z,16.60
2023-04-10T08:17:04.149Z,16.50
2023-04-10T08:19:50.286Z,16.80
2023-04-10T08:22:37.897Z,16.90
2023-04-10T08:25:23.695Z,16.90
2023-04-10T08:28:09.292Z,16.40
2023-04-10T08:30:54.909Z,16.60
2023-04-10T08:33:40.728Z,16.40
2023-04-10T08:36:28.772Z,17.00
2023-04-10T08:39:15.847Z,17.30
2023-04-10T08:42:01.975Z,17.80
2023-04-10T08:44:49.646Z,18.40
2023-04-10T08:47:39.890Z,18.00
2023-04-10T08:50:25.753Z,17.70
2023-04-10T08:53:13.436Z,17.50
2023-04-10T08:56:04.081Z,17.70
2023-04-10T08:58:52.065Z,18.10
2023-04-10T09:01:39.792Z,17.90
2023-04-10T09:04:26.656Z,17.30
2023-04-10T09:07:12.456Z,17.30
2023-04-10T09:09:58.120Z,17.20
2023-04-10T09:12:46.602Z,17.30
2023-04-10T09:15:58.574Z,17.30
2023-04-10T09:18:46.773Z,17.20
2023-04-10T09:21:32.701Z,17.10
2023-04-10T09:24:18.310Z,17.30
2023-04-10T09:27:04.033Z,17.50
2023-04-10T09:29:51.824Z,17.60
2023-04-10T09:32:39.977Z,17.10
2023-04-10T09:35:37.053Z,17.30
2023-04-10T09:38:22.973Z,17.40
2023-04-10T09:41:09.712Z,16.90
2023-04-10T09:44:07.264Z,16.90
2023-04-10T09:46:54.772Z,17.40
2023-04-10T09:49:45.395Z,17.20
2023-04-10T09:52:34.998Z,17.20
2023-04-10T09:55:20.830Z,17.30
2023-04-10T09:58:06.948Z,17.10
2023-04-10T10:00:53.151Z,17.20
2023-04-10T10:03:41.254Z,17.10
2023-04-10T10:06:31.694Z,17.10
2023-04-10T10:09:17.545Z,17.30
2023-04-10T10:12:04.379Z,17.40
2023-04-10T10:14:57.629Z,17.70
2023-04-10T10:17:46.694Z,17.60
2023-04-10T10:20:36.947Z,18.30
2023-04-10T10:23:23.402Z,18.20
2023-04-10T10:26:10.471Z,17.90
2023-04-10T10:28:57.966Z,18.00
2023-04-10T10:31:44.545Z,18.20
2023-04-10T10:34:31.915Z,18.50
2023-04-10T10:37:19.756Z,19.20
2023-04-10T10:40:10.793Z,19.40
2023-04-10T10:43:02.012Z,19.70
2023-04-10T10:45:52.748Z,19.80
2023-04-10T10:48:41.821Z,19.50
2023-04-10T10:51:47.030Z,20.10
2023-04-10T10:54:36.590Z,20.80
2023-04-10T10:57:46.384Z,20.70
2023-04-10T11:01:09.296Z,20.70
2023-04-10T11:03:57.227Z,20.70
2023-04-10T11:06:52.578Z,21.10
2023-04-10T11:09:48.080Z,21.80
2023-04-10T11:13:12.502Z,21.60
2023-04-10T11:15:59.188Z,21.60
2023-04-10T11:19:14.303Z,22.30
2023-04-10T11:22:07.525Z,22.90
2023-04-10T11:24:57.806Z,22.60
2023-04-10T11:27:48.431Z,22.10
2023-04-10T11:30:36.175Z,21.50
2023-04-10T11:33:21.891Z,21.30
2023-04-10T11:36:08.132Z,21.30
2023-04-10T11:38:58.571Z,21.40
2023-04-10T11:41:47.679Z,21.70
2023-04-10T11:44:35.544Z,22.10
2023-04-10T11:47:22.042Z,22.30
2023-04-10T11:50:08.855Z,22.60
2023-04-10T11:52:56.411Z,22.50
2023-04-10T11:55:42.670Z,22.20
2023-04-10T11:58:32.183Z,22.00
2023-04-10T12:01:21.859Z,22.20
2023-04-10T12:04:14.708Z,22.30
2023-04-10T12:07:00.592Z,22.70
2023-04-10T12:09:46.760Z,22.80
2023-04-10T12:12:36.146Z,22.90
2023-04-10T12:15:30.930Z,22.50
2023-04-10T12:18:17.061Z,22.10
2023-04-10T12:23:50.457Z,21.70
2023-04-10T12:26:36.303Z,21.30
2023-04-10T12:29:27.872Z,21.10
2023-04-10T12:32:15.491Z,20.70
2023-04-10T12:35:01.569Z,21.60
2023-04-10T12:37:50.620Z,21.60
2023-04-10T12:40:36.111Z,22.20
2023-04-10T12:43:32.374Z,22.00
2023-04-10T12:46:28.898Z,21.90
2023-04-10T12:49:17.601Z,21.50
2023-04-10T12:52:03.440Z,21.50
2023-04-10T12:54:48.928Z,21.40
2023-04-10T12:57:34.645Z,21.20
2023-04-10T13:00:21.175Z,21.00
2023-04-10T13:03:07.711Z,20.60
2023-04-10T13:05:55.310Z,20.20
2023-04-10T13:08:41.499Z,20.30
2023-04-10T13:11:27.422Z,20.50
2023-04-10T13:14:13.936Z,19.60
2023-04-10T13:16:59.422Z,19.80
2023-04-10T13:19:45.460Z,19.60
2023-04-10T13:22:32.952Z,19.50
2023-04-10T13:25:18.743Z,19.80
2023-04-10T13:28:10.193Z,19.80
2023-04-10T13:30:56.465Z,19.60
2023-04-10T13:33:43.786Z,19.60
2023-04-10T13:36:30.016Z,19.40
2023-04-10T13:39:18.822Z,19.60
2023-04-10T13:42:04.674Z,19.70
2023-04-10T13:44:50.588Z,19.50
2023-04-10T13:47:36.258Z,19.80
2023-04-10T13:50:22.265Z,19.70
2023-04-10T13:53:10.265Z,19.70
2023-04-10T13:55:57.791Z,19.70
2023-04-10T13:58:46.011Z,19.60
2023-04-10T14:01:31.770Z,19.70
2023-04-10T14:04:17.667Z,19.90
2023-04-10T14:07:03.511Z,20.00
2023-04-10T14:09:49.263Z,20.10
2023-04-10T14:12:37.768Z,19.90
2023-04-10T14:15:23.865Z,20.10
2023-04-10T14:18:09.582Z,20.30
2023-04-10T14:20:55.511Z,20.30
2023-04-10T14:23:42.150Z,20.30
2023-04-10T14:26:27.834Z,20.40
2023-04-10T14:29:18.193Z,20.50
2023-04-10T14:32:08.475Z,20.10
2023-04-10T14:34:54.718Z,19.20
2023-04-10T14:37:40.642Z,19.00
2023-04-10T14:40:26.324Z,18.90
2023-04-10T14:43:12.333Z,18.60
2023-04-10T14:45:59.485Z,18.50
2023-04-10T14:48:44.992Z,18.00
2023-04-10T14:51:30.657Z,17.30
2023-04-10T14:54:24.254Z,16.80
2023-04-10T14:57:10.964Z,16.40
2023-04-10T14:59:56.701Z,16.10
2023-04-10T15:02:45.414Z,15.80
2023-04-10T15:05:32.044Z,15.70
2023-04-10T15:08:17.642Z,15.70
2023-04-10T15:11:05.280Z,15.70
2023-04-10T15:13:51.351Z,15.70
2023-04-10T15:16:37.205Z,15.80
2023-04-10T15:19:24.382Z,15.90
2023-04-10T15:22:09.968Z,16.00
2023-04-10T15:24:55.460Z,16.00
2023-04-10T15:27:41.021Z,15.90
2023-04-10T15:30:26.845Z,15.90
2023-04-10T15:33:12.662Z,15.90
2023-04-10T15:35:59.606Z,15.90
2023-04-10T15:38:45.262Z,15.90
2023-04-10T15:41:32.595Z,15.70
2023-04-10T15:44:18.120Z,15.90
2023-04-10T15:47:03.746Z,16.00
2023-04-10T15:49:49.535Z,16.00
2023-04-10T15:52:36.496Z,16.40
2023-04-10T15:55:22.193Z,16.30
2023-04-10T15:58:07.931Z,16.30
2023-04-10T16:00:53.852Z,16.30
2023-04-10T16:03:40.201Z,16.30
2023-04-10T16:06:27.802Z,16.40
2023-04-10T16:09:24.964Z,16.30
2023-04-10T16:12:12.756Z,16.40
2023-04-10T16:14:58.581Z,16.50
2023-04-10T16:17:44.638Z,16.80
2023-04-10T16:20:30.810Z,16.70
2023-04-10T16:23:16.381Z,16.70
2023-04-10T16:26:04.083Z,16.80
2023-04-10T16:28:50.181Z,16.50
2023-04-10T16:31:36.050Z,16.30
2023-04-10T16:34:22.148Z,16.10
2023-04-10T16:37:08.080Z,15.80
2023-04-10T16:39:53.903Z,15.50
2023-04-10T16:42:42.767Z,15.50
2023-04-10T16:45:28.775Z,15.60
2023-04-10T16:48:14.577Z,15.50
2023-04-10T16:51:05.939Z,15.50
2023-04-10T16:53:52.121Z,15.30
2023-04-10T16:56:37.784Z,15.30
2023-04-10T16:59:24.782Z,15.20
2023-04-10T17:02:10.665Z,15.10
2023-04-10T17:04:57.021Z,15.10
2023-04-10T17:07:44.559Z,15.10
2023-04-10T17:10:30.827Z,15.10
2023-04-10T17:13:19.828Z,15.10
2023-04-10T17:16:10.728Z,15.00
2023-04-10T17:18:57.659Z,15.20
2023-04-10T17:21:44.092Z,15.10
2023-04-10T17:24:31.557Z,15.00
2023-04-10T17:27:22.297Z,15.00
2023-04-10T17:30:11.863Z,14.90
2023-04-10T17:32:59.238Z,14.70
2023-04-10T17:35:45.132Z,14.80
2023-04-10T17:38:31.042Z,14.70
2023-04-10T17:41:17.388Z,14.60
2023-04-10T17:44:05.476Z,14.70
2023-04-10T17:46:53.569Z,14.50
2023-04-10T17:49:46.448Z,14.40
2023-04-10T17:52:32.199Z,14.50
2023-04-10T17:55:21.247Z,14.40
2023-04-10T17:58:07.456Z,14.70
2023-04-10T18:00:53.069Z,14.50
2023-04-10T18:03:39.276Z,14.40
2023-04-10T18:06:27.690Z,14.60
2023-04-10T18:09:13.636Z,14.30
2023-04-10T18:11:59.943Z,14.40
2023-04-10T18:14:48.067Z,14.50
2023-04-10T18:17:38.766Z,14.60
2023-04-10T18:20:28.400Z,14.50
2023-04-10T18:23:16.205Z,14.70
2023-04-10T18:26:03.663Z,14.30
2023-04-10T18:28:52.274Z,14.60
2023-04-10T18:31:41.434Z,14.30
2023-04-10T18:34:28.307Z,14.40
2023-04-10T18:37:14.201Z,14.40
2023-04-10T18:40:09.845Z,14.20
2023-04-10T18:43:01.970Z,14.40
2023-04-10T18:45:47.795Z,14.40
2023-04-10T18:48:35.946Z,14.60
2023-04-10T18:51:22.310Z,14.50
2023-04-10T18:54:08.136Z,14.50
2023-04-10T18:56:56.688Z,14.20
2023-04-10T18:59:42.460Z,14.30
2023-04-10T19:02:28.342Z,14.60
2023-04-10T19:05:14.487Z,14.50
2023-04-10T19:08:05.008Z,14.60
2023-04-10T19:10:51.245Z,14.40
2023-04-10T19:13:38.909Z,14.40
2023-04-10T19:16:24.706Z,14.60
2023-04-10T19:19:10.671Z,14.70
2023-04-10T19:21:56.104Z,14.50
2023-04-10T19:24:41.895Z,14.40
2023-04-10T19:27:28.377Z,14.60
2023-04-10T19:30:15.832Z,14.30
2023-04-10T19:33:01.891Z,14.20
2023-04-10T19:35:47.950Z,14.10
2023-04-10T19:38:33.960Z,14.50
2023-04-10T19:41:19.532Z,14.60
2023-04-10T19:44:06.204Z,14.60
2023-04-10T19:46:53.444Z,14.20
2023-04-10T19:49:39.213Z,14.50
2023-04-10T19:52:25.783Z,14.50
2023-04-10T19:55:11.519Z,14.40
2023-04-10T19:57:57.126Z,14.50
2023-04-10T20:00:42.996Z,14.40
2023-04-10T20:03:31.497Z,14.30
2023-04-10T20:06:17.156Z,14.10
2023-04-10T20:09:02.573Z,14.40
2023-04-10T20:11:48.604Z,14.30
2023-04-10T20:14:34.521Z,14.30
2023-04-10T20:17:20.434Z,14.20
2023-04-10T20:20:09.133Z,14.20
2023-04-10T20:22:57.304Z,14.00
2023-04-10T20:25:43.715Z,13.90
2023-04-10T20:28:29.369Z,14.10
2023-04-10T20:31:15.503Z,14.30
2023-04-10T20:34:01.298Z,14.40
2023-04-10T20:36:48.236Z,14.50
2023-04-10T20:39:33.807Z,14.10
2023-04-10T20:42:19.442Z,14.00
2023-04-10T20:45:06.334Z,14.10
2023-04-10T20:47:52.139Z,14.20
2023-04-10T20:50:47.765Z,14.20
2023-04-10T20:53:35.318Z,14.20
2023-04-10T20:56:24.792Z,14.00
2023-04-10T20:59:12.812Z,13.70
2023-04-10T21:01:58.966Z,13.90
2023-04-10T21:04:44.550Z,14.10
2023-04-10T21:07:30.811Z,14.00
2023-04-10T21:10:17.670Z,13.80
2023-04-10T21:13:03.171Z,14.10
2023-04-10T21:15:49.466Z,14.00
2023-04-10T21:18:35.198Z,13.70
2023-04-10T21:21:21.087Z,13.70
2023-04-10T21:24:06.863Z,13.80
2023-04-10T21:26:54.015Z,13.70
2023-04-10T21:29:40.118Z,13.80
2023-04-10T21:32:25.935Z,13.80
2023-04-10T21:35:11.708Z,13.70
2023-04-10T21:38:02.100Z,13.60
2023-04-10T21:40:51.839Z,13.80
2023-04-10T21:43:39.942Z,13.90
2023-04-10T21:46:25.876Z,14.00
2023-04-10T21:49:11.530Z,13.90
2023-04-10T21:51:59.135Z,13.90
2023-04-10T21:54:44.817Z,14.00
2023-04-10T21:57:30.343Z,14.20
2023-04-10T22:00:18.450Z,14.30
2023-04-10T22:03:07.492Z,14.20
2023-04-10T22:05:53.425Z,14.30
2023-04-10T22:08:40.120Z,14.10
2023-04-10T22:11:25.745Z,14.00
2023-04-10T22:14:17.191Z,14.10
2023-04-10T22:17:05.950Z,14.00
2023-04-10T22:19:52.060Z,13.70
2023-04-10T22:22:37.628Z,13.70
2023-04-10T22:25:23.285Z,13.70
2023-04-10T22:28:09.337Z,13.70
2023-04-10T22:30:54.993Z,13.60
2023-04-10T22:33:42.299Z,13.70
2023-04-10T22:36:32.788Z,13.90
2023-04-10T22:39:18.581Z,13.90
2023-04-10T22:42:04.255Z,13.90
2023-04-10T22:44:50.020Z,13.80
2023-04-10T22:47:35.779Z,13.70
2023-04-10T22:50:22.812Z,13.90
2023-04-10T22:53:10.360Z,13.80
2023-04-10T22:55:55.852Z,13.50
2023-04-10T22:58:41.847Z,13.20
2023-04-10T23:01:28.166Z,13.20
2023-04-10T23:04:14.164Z,13.10
2023-04-10T23:07:01.573Z,13.00
2023-04-10T23:09:46.969Z,13.00
2023-04-10T23:12:32.724Z,12.70
2023-04-10T23:15:18.768Z,12.80
2023-04-10T23:18:04.832Z,12.90
2023-04-10T23:20:51.058Z,12.90
2023-04-10T23:23:37.927Z,12.80
2023-04-10T23:26:23.421Z,12.80
2023-04-10T23:29:08.920Z,12.50
2023-04-10T23:31:54.692Z,12.60
2023-04-10T23:34:40.075Z,12.60
2023-04-10T23:37:25.679Z,12.30
2023-04-10T23:40:13.546Z,12.30
2023-04-10T23:42:59.492Z,12.10
2023-04-10T23:45:45.038Z,12.20
2023-04-10T23:48:30.623Z,12.20
2023-04-10T23:51:16.177Z,12.10
2023-04-10T23:54:01.645Z,12.20
2023-04-10T23:56:48.752Z,12.20
2023-04-10T23:59:34.585Z,12.10
